Time;durP1;ratioP1;P1;durP2;ratioP2;P2;SDS_P1;SDS_P2;PMS_P1;PMS_P2;Temp;Humidity;BMP_temperature;BMP_pressure;BME280_temperature;BME280_humidity;BME280_pressure;Samples;Min_cycle;Max_cycle;Signal;HPM_P1;HPM_P2
2021/12/30 00:00:37;;;;;;;;;1.67;0.00;;;;;-144.69;100.00;61360.22;6182285;23;27655;-73
2021/12/30 00:03:05;;;;;;;;;1.00;0.00;;;;;-144.69;100.00;61360.22;6180429;23;27820;-74
2021/12/30 00:05:30;;;;;;;;;1.00;1.00;;;;;-144.69;100.00;61360.22;6208026;22;28395;-74
2021/12/30 00:07:56;;;;;;;;;0.00;0.00;;;;;-144.69;100.00;61360.22;6251534;22;27637;-74
2021/12/30 00:10:21;;;;;;;;;0.00;0.00;;;;;-144.69;100.00;61360.22;6247634;22;28444;-76
2021/12/30 00:12:47;;;;;;;;;0.00;0.00;;;;;-144.69;100.00;61360.22;6247043;22;28326;-75
2021/12/30 00:15:13;;;;;;;;;0.00;0.00;;;;;-144.69;100.00;61360.22;6246749;22;28612;-76
2021/12/30 00:17:39;;;;;;;;;0.67;0.00;;;;;-144.69;100.00;61360.22;6243559;22;28460;-73
2021/12/30 00:20:06;;;;;;;;;1.33;0.33;;;;;-144.69;100.00;61360.22;6241177;22;28346;-76
2021/12/30 00:22:32;;;;;;;;;0.00;0.00;;;;;-144.69;100.00;61360.22;6241044;22;28340;-76
2021/12/30 00:24:58;;;;;;;;;0.00;0.00;;;;;-144.69;100.00;61360.22;6241656;22;27791;-75
2021/12/30 00:27:23;;;;;;;;;0.67;0.67;;;;;-144.69;100.00;61360.22;6239259;22;29649;-75
2021/12/30 00:29:49;;;;;;;;;0.00;0.00;;;;;-144.69;100.00;61360.22;6240374;22;28516;-75
2021/12/30 00:32:14;;;;;;;;;0.67;0.00;;;;;-144.69;100.00;61360.22;6241477;22;28321;-75
2021/12/30 00:34:40;;;;;;;;;0.00;0.00;;;;;-144.69;100.00;61360.22;6239077;22;28401;-75
2021/12/30 00:37:05;;;;;;;;;1.33;1.00;;;;;-144.69;100.00;61360.22;6246239;22;28454;-75
2021/12/30 00:39:31;;;;;;;;;0.67;0.67;;;;;-144.69;100.00;61360.22;6247045;22;27841;-75
2021/12/30 00:41:56;;;;;;;;;0.00;0.00;;;;;-144.69;100.00;61360.22;6248086;22;27746;-75
2021/12/30 00:44:22;;;;;;;;;0.00;0.00;;;;;-144.69;100.00;61360.22;6245890;22;28401;-74
2021/12/30 00:46:47;;;;;;;;;0.00;0.00;;;;;-144.69;100.00;61360.22;6244661;22;28065;-75
2021/12/30 00:49:14;;;;;;;;;0.00;0.00;;;;;-144.69;100.00;61360.22;6243464;22;28573;-74
2021/12/30 00:51:40;;;;;;;;;0.00;0.00;;;;;-144.69;100.00;61360.22;6243633;22;28719;-75
2021/12/30 00:54:05;;;;;;;;;0.00;0.00;;;;;-144.69;100.00;61360.22;6243316;22;28691;-75
2021/12/30 00:56:31;;;;;;;;;0.00;0.00;;;;;-144.69;100.00;61360.22;6244049;22;28314;-76
2021/12/30 00:58:56;;;;;;;;;1.00;0.00;;;;;-144.69;100.00;61360.22;6242234;22;28501;-76
2021/12/30 01:01:22;;;;;;;;;0.00;0.00;;;;;-144.69;100.00;61360.22;6240315;22;28594;-76
2021/12/30 01:03:48;;;;;;;;;0.00;0.00;;;;;-144.69;100.00;61360.22;6238873;22;28562;-75
2021/12/30 01:06:14;;;;;;;;;0.00;0.00;;;;;-144.69;100.00;61360.22;6239559;22;28599;-76
2021/12/30 01:08:39;;;;;;;;;0.00;0.00;;;;;-144.69;100.00;61360.22;6235160;22;28568;-76
2021/12/30 01:11:08;;;;;;;;;0.00;0.00;;;;;-144.69;100.00;61360.22;6231351;22;28501;-75
2021/12/30 01:13:39;;;;;;;;;0.00;0.00;;;;;-144.69;100.00;61360.22;6231376;22;28361;-75
2021/12/30 01:16:14;;;;;;;;;0.00;0.00;;;;;-144.69;100.00;61360.22;6229933;22;29318;-77
2021/12/30 01:18:54;;;;;;;;;0.00;0.00;;;;;-144.69;100.00;61360.22;6231041;22;28649;-76
2021/12/30 01:21:21;;;;;;;;;0.00;0.00;;;;;-144.69;100.00;61360.22;6234913;22;28619;-77
2021/12/30 01:23:46;;;;;;;;;0.25;0.00;;;;;-144.69;100.00;61360.22;6240407;22;28522;-75
2021/12/30 01:26:12;;;;;;;;;0.00;0.00;;;;;-144.69;100.00;61360.22;6232859;22;28608;-76
2021/12/30 01:28:38;;;;;;;;;0.00;0.00;;;;;-144.69;100.00;61360.22;6230855;22;28657;-74
2021/12/30 01:31:04;;;;;;;;;0.00;0.00;;;;;-144.69;100.00;61360.22;6230973;22;28742;-75
2021/12/30 01:33:30;;;;;;;;;0.00;0.00;;;;;-144.69;100.00;61360.22;6237037;22;28666;-74
2021/12/30 01:35:55;;;;;;;;;0.00;0.00;;;;;-144.69;100.00;61360.22;6252802;22;27826;-74
2021/12/30 01:38:21;;;;;;;;;0.00;0.00;;;;;-144.69;100.00;61360.22;6251729;22;28554;-74
2021/12/30 01:40:49;;;;;;;;;0.00;0.00;;;;;-144.69;100.00;61360.22;6225693;22;27770;-75
2021/12/30 01:43:15;;;;;;;;;0.00;0.00;;;;;-144.69;100.00;61360.22;6255160;22;8754;-76
2021/12/30 01:45:42;;;;;;;;;0.00;0.00;;;;;-144.69;100.00;61360.22;6250975;22;28899;-74
2021/12/30 01:48:09;;;;;;;;;0.00;0.00;;;;;-144.69;100.00;61360.22;6246442;22;28628;-75
2021/12/30 01:50:35;;;;;;;;;0.00;0.00;;;;;-144.69;100.00;61360.22;6246237;22;28581;-74
2021/12/30 01:53:03;;;;;;;;;0.00;0.00;;;;;-144.69;100.00;61360.22;6250049;22;27872;-75
2021/12/30 01:55:31;;;;;;;;;0.00;0.00;;;;;-144.69;100.00;61360.22;6244699;22;29428;-75
2021/12/30 01:57:56;;;;;;;;;1.00;0.67;;;;;-144.69;100.00;61360.22;6240701;22;28565;-75
2021/12/30 02:00:25;;;;;;;;;0.00;0.00;;;;;-144.69;100.00;61360.22;6243127;22;28473;-75
2021/12/30 02:02:51;;;;;;;;;0.00;0.00;;;;;-144.69;100.00;61360.22;6245136;22;28229;-75
2021/12/30 02:05:17;;;;;;;;;0.33;0.33;;;;;-144.69;100.00;61360.22;6243997;22;28468;-75
2021/12/30 02:07:43;;;;;;;;;1.00;0.00;;;;;-144.69;100.00;61360.22;6241067;22;28539;-76
2021/12/30 02:10:10;;;;;;;;;0.00;0.00;;;;;-144.69;100.00;61360.22;6248367;22;28552;-75
2021/12/30 02:12:38;;;;;;;;;0.00;0.00;;;;;-144.69;100.00;61360.22;6252859;22;27963;-74
2021/12/30 02:15:08;;;;;;;;;0.00;0.00;;;;;-144.69;100.00;61360.22;6252895;22;28584;-75
2021/12/30 02:17:34;;;;;;;;;0.00;0.00;;;;;-144.69;100.00;61360.22;6248039;22;28465;-75
2021/12/30 02:20:03;;;;;;;;;0.00;0.00;;;;;-144.69;100.00;61360.22;6248505;22;28666;-75
2021/12/30 02:22:28;;;;;;;;;0.00;0.00;;;;;-144.69;100.00;61360.22;6224705;22;27935;-75
2021/12/30 02:24:54;;;;;;;;;0.00;0.00;;;;;-144.69;100.00;61360.22;6254578;22;28514;-75
2021/12/30 02:27:19;;;;;;;;;0.00;0.00;;;;;-144.69;100.00;61360.22;6250141;22;27905;-75
2021/12/30 02:29:45;;;;;;;;;0.00;0.00;;;;;-144.69;100.00;61360.22;6247613;22;28432;-76
2021/12/30 02:32:11;;;;;;;;;0.00;0.00;;;;;-144.69;100.00;61360.22;6247431;22;27887;-76
2021/12/30 02:34:38;;;;;;;;;0.00;0.00;;;;;-144.69;100.00;61360.22;6247673;22;28445;-76
2021/12/30 02:37:05;;;;;;;;;0.00;0.00;;;;;-144.69;100.00;61360.22;6247425;22;28629;-75
2021/12/30 02:39:30;;;;;;;;;0.00;0.00;;;;;-144.69;100.00;61360.22;6242290;22;28479;-76
2021/12/30 02:41:56;;;;;;;;;0.00;0.00;;;;;-144.69;100.00;61360.22;6244992;22;27882;-77
2021/12/30 02:44:22;;;;;;;;;0.00;0.00;;;;;-144.69;100.00;61360.22;6244182;22;29423;-76
2021/12/30 02:46:51;;;;;;;;;0.00;0.00;;;;;-144.69;100.00;61360.22;6242911;22;28405;-77
2021/12/30 02:49:17;;;;;;;;;0.00;0.00;;;;;-144.69;100.00;61360.22;6239808;22;28370;-76
2021/12/30 02:51:44;;;;;;;;;0.00;0.00;;;;;-144.69;100.00;61360.22;6243860;22;28510;-76
2021/12/30 02:54:09;;;;;;;;;0.00;0.00;;;;;-144.69;100.00;61360.22;6240637;22;28414;-77
2021/12/30 02:56:35;;;;;;;;;0.00;0.00;;;;;-144.69;100.00;61360.22;6242100;22;28612;-77
2021/12/30 02:59:01;;;;;;;;;0.00;0.00;;;;;-144.69;100.00;61360.22;6238987;22;28405;-75
2021/12/30 03:01:29;;;;;;;;;0.00;0.00;;;;;-144.69;100.00;61360.22;6241157;22;28512;-75
2021/12/30 03:04:00;;;;;;;;;0.00;0.00;;;;;-144.69;100.00;61360.22;6240638;22;28652;-76
2021/12/30 03:06:27;;;;;;;;;0.00;0.00;;;;;-144.69;100.00;61360.22;6255050;22;27856;-76
2021/12/30 03:08:54;;;;;;;;;0.00;0.00;;;;;-144.69;100.00;61360.22;6255008;22;28004;-75
2021/12/30 03:11:23;;;;;;;;;1.00;0.00;;;;;-144.69;100.00;61360.22;6257238;22;8776;-74
2021/12/30 03:13:49;;;;;;;;;0.00;0.00;;;;;-144.69;100.00;61360.22;6252076;22;28392;-75
2021/12/30 03:16:17;;;;;;;;;0.00;0.00;;;;;-144.69;100.00;61360.22;6248924;22;27993;-76
2021/12/30 03:18:45;;;;;;;;;0.00;0.00;;;;;-144.69;100.00;61360.22;6251829;22;27712;-76
2021/12/30 03:21:13;;;;;;;;;0.00;0.00;;;;;-144.69;100.00;61360.22;6244918;22;28597;-75
2021/12/30 03:23:38;;;;;;;;;0.00;0.00;;;;;-144.69;100.00;61360.22;6247644;22;29435;-77
2021/12/30 03:26:06;;;;;;;;;0.00;0.00;;;;;-144.69;100.00;61360.22;6249901;22;28164;-76
2021/12/30 03:28:33;;;;;;;;;0.00;0.00;;;;;-144.69;100.00;61360.22;6242019;22;28386;-76
2021/12/30 03:30:59;;;;;;;;;0.00;0.00;;;;;-144.69;100.00;61360.22;6248203;22;28394;-76
2021/12/30 03:33:29;;;;;;;;;0.00;0.00;;;;;-144.69;100.00;61360.22;6249985;22;27920;-76
2021/12/30 03:35:59;;;;;;;;;0.00;0.00;;;;;-144.69;100.00;61360.22;6237569;22;27911;-76
2021/12/30 03:38:31;;;;;;;;;0.00;0.00;;;;;-144.69;100.00;61360.22;6239427;22;28686;-76
2021/12/30 03:40:57;;;;;;;;;0.00;0.00;;;;;-144.69;100.00;61360.22;6242848;22;27960;-74
2021/12/30 03:43:23;;;;;;;;;0.00;0.00;;;;;-144.69;100.00;61360.22;6236136;22;30969;-73
2021/12/30 03:45:49;;;;;;;;;0.00;0.00;;;;;-144.69;100.00;61360.22;6242219;22;28577;-75
2021/12/30 03:48:14;;;;;;;;;0.00;0.00;;;;;-144.69;100.00;61360.22;6240698;22;28544;-75
2021/12/30 03:50:43;;;;;;;;;0.00;0.00;;;;;-144.69;100.00;61360.22;6240280;22;27989;-76
2021/12/30 03:53:11;;;;;;;;;0.00;0.00;;;;;-144.69;100.00;61360.22;6243723;22;27912;-75
2021/12/30 03:55:36;;;;;;;;;0.00;0.00;;;;;-144.69;100.00;61360.22;6244124;22;28355;-76
2021/12/30 03:58:02;;;;;;;;;0.00;0.00;;;;;-144.69;100.00;61360.22;6253525;22;27704;-74
2021/12/30 04:00:32;;;;;;;;;0.00;0.00;;;;;-144.69;100.00;61360.22;6251458;22;27991;-74
2021/12/30 04:02:58;;;;;;;;;0.00;0.00;;;;;-144.69;100.00;61360.22;6251734;22;27898;-76
2021/12/30 04:05:24;;;;;;;;;0.00;0.00;;;;;-144.69;100.00;61360.22;6250907;22;28370;-75
2021/12/30 04:07:50;;;;;;;;;0.00;0.00;;;;;-144.69;100.00;61360.22;6242954;22;28472;-75
2021/12/30 04:10:19;;;;;;;;;0.00;0.00;;;;;-144.69;100.00;61360.22;6241038;22;27982;-74
2021/12/30 04:12:45;;;;;;;;;0.67;0.00;;;;;-144.69;100.00;61360.22;6253306;22;28379;-75
2021/12/30 04:15:11;;;;;;;;;0.00;0.00;;;;;-144.69;100.00;61360.22;6256747;22;9929;-75
2021/12/30 04:17:37;;;;;;;;;0.25;0.00;;;;;-144.69;100.00;61360.22;6256019;22;8750;-75
2021/12/30 04:20:07;;;;;;;;;0.00;0.00;;;;;-144.69;100.00;61360.22;6252932;22;26497;-76
2021/12/30 04:22:33;;;;;;;;;0.00;0.00;;;;;-144.69;100.00;61360.22;6252208;22;28616;-75
2021/12/30 04:24:59;;;;;;;;;0.00;0.00;;;;;-144.69;100.00;61360.22;6256574;22;9817;-76
2021/12/30 04:27:24;;;;;;;;;0.00;0.00;;;;;-144.69;100.00;61360.22;6248707;22;28742;-76
2021/12/30 04:29:49;;;;;;;;;0.00;0.00;;;;;-144.69;100.00;61360.22;6237830;22;28803;-75
2021/12/30 04:32:15;;;;;;;;;0.00;0.00;;;;;-144.69;100.00;61360.22;6242372;22;28581;-75
2021/12/30 04:34:40;;;;;;;;;0.00;0.00;;;;;-144.69;100.00;61360.22;6217349;22;28718;-75
2021/12/30 04:37:06;;;;;;;;;1.00;1.00;;;;;-144.69;100.00;61360.22;6246290;22;28628;-75
2021/12/30 04:39:31;;;;;;;;;0.00;0.00;;;;;-144.69;100.00;61360.22;6244437;22;28429;-77
2021/12/30 04:42:06;;;;;;;;;0.00;0.00;;;;;-144.69;100.00;61360.22;6245065;22;27987;-75
2021/12/30 04:44:32;;;;;;;;;0.00;0.00;;;;;-144.69;100.00;61360.22;6242978;22;28367;-76
2021/12/30 04:46:57;;;;;;;;;0.00;0.00;;;;;-144.69;100.00;61360.22;6217105;22;28342;-75
2021/12/30 04:49:24;;;;;;;;;1.00;0.00;;;;;-144.69;100.00;61360.22;6242805;22;28382;-76
2021/12/30 04:51:50;;;;;;;;;0.00;0.00;;;;;-144.69;100.00;61360.22;6239961;22;29515;-75
2021/12/30 04:54:16;;;;;;;;;0.00;0.00;;;;;-144.69;100.00;61360.22;6241711;22;28980;-75
2021/12/30 04:56:42;;;;;;;;;1.00;0.00;;;;;-144.69;100.00;61360.22;6241129;22;28320;-74
2021/12/30 04:59:08;;;;;;;;;0.00;0.00;;;;;-144.69;100.00;61360.22;6241604;22;28390;-74
2021/12/30 05:01:33;;;;;;;;;0.00;0.00;;;;;-144.69;100.00;61360.22;6213863;22;27886;-75
2021/12/30 05:03:58;;;;;;;;;0.00;0.00;;;;;-144.69;100.00;61360.22;6241400;22;27898;-76
2021/12/30 05:06:24;;;;;;;;;0.00;0.00;;;;;-144.69;100.00;61360.22;6238860;22;28364;-74
2021/12/30 05:08:50;;;;;;;;;0.00;0.00;;;;;-144.69;100.00;61360.22;6211424;22;28396;-74
2021/12/30 05:11:16;;;;;;;;;0.00;0.00;;;;;-144.69;100.00;61360.22;6241731;22;28694;-74
2021/12/30 05:13:41;;;;;;;;;0.00;0.00;;;;;-144.69;100.00;61360.22;6240584;22;28463;-74
2021/12/30 05:16:07;;;;;;;;;0.00;0.00;;;;;-144.69;100.00;61360.22;6241776;22;28295;-75
2021/12/30 05:18:33;;;;;;;;;0.00;0.00;;;;;-144.69;100.00;61360.22;6240468;22;28277;-75
2021/12/30 05:21:01;;;;;;;;;0.00;0.00;;;;;-144.69;100.00;61360.22;6242475;22;28493;-77
2021/12/30 05:23:27;;;;;;;;;0.00;0.00;;;;;-144.69;100.00;61360.22;6240964;22;28521;-75
2021/12/30 05:25:53;;;;;;;;;0.00;0.00;;;;;-144.69;100.00;61360.22;6242220;22;28405;-75
2021/12/30 05:28:19;;;;;;;;;0.00;0.00;;;;;-144.69;100.00;61360.22;6244075;22;28637;-75
2021/12/30 05:30:48;;;;;;;;;0.00;0.00;;;;;-144.69;100.00;61360.22;6205805;22;30158;-76
2021/12/30 05:33:13;;;;;;;;;0.00;0.00;;;;;-144.69;100.00;61360.22;6239330;22;28497;-74
2021/12/30 05:35:39;;;;;;;;;0.00;0.00;;;;;-144.69;100.00;61360.22;6246877;22;28518;-75
2021/12/30 05:38:05;;;;;;;;;0.00;0.00;;;;;-144.69;100.00;61360.22;6251331;22;27899;-75
2021/12/30 05:40:31;;;;;;;;;2.00;1.00;;;;;-144.69;100.00;61360.22;6250636;22;27788;-75
2021/12/30 05:42:57;;;;;;;;;1.75;0.00;;;;;-144.69;100.00;61360.22;6249600;22;27875;-74
2021/12/30 05:45:22;;;;;;;;;0.00;0.00;;;;;-144.69;100.00;61360.22;6249687;22;27875;-74
2021/12/30 05:47:50;;;;;;;;;0.00;0.00;;;;;-144.69;100.00;61360.22;6247594;22;27945;-74
2021/12/30 05:50:20;;;;;;;;;1.00;0.00;;;;;-144.69;100.00;61360.22;6245887;22;28589;-74
2021/12/30 05:52:46;;;;;;;;;0.67;0.00;;;;;-144.69;100.00;61360.22;6247125;22;28418;-73
2021/12/30 05:55:13;;;;;;;;;0.00;0.00;;;;;-144.69;100.00;61360.22;6247915;22;28408;-74
2021/12/30 05:57:40;;;;;;;;;0.00;0.00;;;;;-144.69;100.00;61360.22;6245424;22;28386;-74
2021/12/30 06:00:08;;;;;;;;;2.00;0.00;;;;;-144.69;100.00;61360.22;6248105;22;29392;-74
2021/12/30 06:02:34;;;;;;;;;0.00;0.00;;;;;-144.69;100.00;61360.22;6244924;22;27944;-73
2021/12/30 06:05:00;;;;;;;;;2.00;0.67;;;;;-144.69;100.00;61360.22;6248558;22;28440;-73
2021/12/30 06:07:25;;;;;;;;;1.00;1.00;;;;;-144.69;100.00;61360.22;6245114;22;28002;-73
2021/12/30 06:09:51;;;;;;;;;1.00;0.00;;;;;-144.69;100.00;61360.22;6245970;22;29210;-74
2021/12/30 06:12:16;;;;;;;;;1.00;1.00;;;;;-144.69;100.00;61360.22;6247697;22;27868;-73
2021/12/30 06:14:42;;;;;;;;;4.00;2.33;;;;;-144.69;100.00;61360.22;6244214;22;27953;-72
2021/12/30 06:17:07;;;;;;;;;1.33;1.33;;;;;-144.69;100.00;61360.22;6243288;22;27983;-75
2021/12/30 06:19:32;;;;;;;;;0.67;0.00;;;;;-144.69;100.00;61360.22;6244379;22;28508;-75
2021/12/30 06:21:58;;;;;;;;;0.00;0.00;;;;;-144.69;100.00;61360.22;6216093;22;27933;-75
2021/12/30 06:24:23;;;;;;;;;3.00;1.00;;;;;-144.69;100.00;61360.22;6245851;22;28226;-76
2021/12/30 06:26:49;;;;;;;;;1.33;1.00;;;;;-144.69;100.00;61360.22;6246777;22;27900;-74
2021/12/30 06:29:14;;;;;;;;;2.00;0.00;;;;;-144.69;100.00;61360.22;6219040;22;30025;-76
2021/12/30 06:31:41;;;;;;;;;1.00;1.00;;;;;-144.69;100.00;61360.22;6243163;22;28373;-75
2021/12/30 06:34:06;;;;;;;;;1.00;0.00;;;;;-144.69;100.00;61360.22;6242457;22;28384;-72
2021/12/30 06:36:32;;;;;;;;;1.00;1.00;;;;;-144.69;100.00;61360.22;6242582;22;28379;-73
2021/12/30 06:38:57;;;;;;;;;5.00;1.00;;;;;-144.69;100.00;61360.22;6244125;22;28296;-73
2021/12/30 06:41:24;;;;;;;;;5.00;2.00;;;;;-144.69;100.00;61360.22;6243913;22;28405;-73
2021/12/30 06:43:49;;;;;;;;;2.00;1.00;;;;;-144.69;100.00;61360.22;6241619;22;28296;-77
2021/12/30 06:46:19;;;;;;;;;2.00;0.33;;;;;-144.69;100.00;61360.22;6243365;22;27810;-76
2021/12/30 06:48:45;;;;;;;;;2.00;1.00;;;;;-144.69;100.00;61360.22;6245499;22;28400;-77
2021/12/30 06:51:13;;;;;;;;;1.00;1.00;;;;;-144.69;100.00;61360.22;6242450;22;28250;-76
2021/12/30 06:53:39;;;;;;;;;2.75;2.00;;;;;-144.69;100.00;61360.22;6243208;22;28313;-76
2021/12/30 06:56:04;;;;;;;;;1.00;1.00;;;;;-144.69;100.00;61360.22;6245868;22;27745;-76
2021/12/30 06:58:30;;;;;;;;;1.00;1.00;;;;;-144.69;100.00;61360.22;6245669;22;29498;-77
2021/12/30 07:00:57;;;;;;;;;1.00;1.00;;;;;-144.69;100.00;61360.22;6243123;22;28326;-77
2021/12/30 07:03:23;;;;;;;;;3.00;3.00;;;;;-144.69;100.00;61360.22;6241674;22;28427;-77
2021/12/30 07:05:51;;;;;;;;;2.33;1.33;;;;;-144.69;100.00;61360.22;6246495;22;27779;-75
2021/12/30 07:08:17;;;;;;;;;4.67;3.00;;;;;-144.69;100.00;61360.22;6243305;22;28304;-75
2021/12/30 07:10:42;;;;;;;;;2.00;2.00;;;;;-144.69;100.00;61360.22;6245159;22;28387;-77
2021/12/30 07:13:08;;;;;;;;;8.67;5.00;;;;;-144.69;100.00;61360.22;6244863;22;28450;-75
2021/12/30 07:15:33;;;;;;;;;4.00;2.67;;;;;-144.69;100.00;61360.22;6249097;22;28349;-76
2021/12/30 07:17:58;;;;;;;;;1.00;1.00;;;;;-144.69;100.00;61360.22;6242229;22;28472;-77
2021/12/30 07:20:24;;;;;;;;;6.00;1.67;;;;;-144.69;100.00;61360.22;6246301;22;28284;-76
2021/12/30 07:22:49;;;;;;;;;3.33;2.00;;;;;-144.69;100.00;61360.22;6241098;22;28331;-75
2021/12/30 07:25:18;;;;;;;;;7.33;3.67;;;;;-144.69;100.00;61360.22;6243064;22;28438;-75
2021/12/30 07:27:45;;;;;;;;;5.75;3.25;;;;;-144.69;100.00;61360.22;6245098;22;28399;-74
2021/12/30 07:30:11;;;;;;;;;2.00;2.00;;;;;-144.69;100.00;61360.22;6246952;22;28347;-75
2021/12/30 07:32:37;;;;;;;;;3.00;1.50;;;;;-144.69;100.00;61360.22;6247543;22;28265;-76
2021/12/30 07:35:02;;;;;;;;;2.00;1.33;;;;;-144.69;100.00;61360.22;6247759;22;28332;-74
2021/12/30 07:37:28;;;;;;;;;5.67;4.00;;;;;-144.69;100.00;61360.22;6241169;22;28312;-75
2021/12/30 07:39:53;;;;;;;;;4.33;2.67;;;;;-144.69;100.00;61360.22;6243480;22;27895;-73
2021/12/30 07:42:19;;;;;;;;;5.33;1.00;;;;;-144.69;100.00;61360.22;6247016;22;27843;-75
2021/12/30 07:44:44;;;;;;;;;5.67;3.33;;;;;-144.69;100.00;61360.22;6243644;22;28402;-74
2021/12/30 07:47:09;;;;;;;;;4.00;4.00;;;;;-144.69;100.00;61360.22;6242907;22;28459;-75
2021/12/30 07:49:38;;;;;;;;;2.00;1.33;;;;;-144.69;100.00;61360.22;6216779;22;27777;-73
2021/12/30 07:52:05;;;;;;;;;2.50;2.50;;;;;-144.69;100.00;61360.22;6243118;22;27902;-73
2021/12/30 07:54:30;;;;;;;;;2.00;1.00;;;;;-144.69;100.00;61360.22;6243724;22;28390;-73
2021/12/30 07:56:56;;;;;;;;;2.33;2.33;;;;;-144.69;100.00;61360.22;6242822;22;28411;-73
2021/12/30 07:59:21;;;;;;;;;2.00;2.00;;;;;-144.69;100.00;61360.22;6243683;22;27913;-75
2021/12/30 08:01:47;;;;;;;;;4.67;3.00;;;;;-144.69;100.00;61360.22;6242144;22;28362;-75
2021/12/30 08:04:12;;;;;;;;;3.67;3.33;;;;;-144.69;100.00;61360.22;6242718;22;28468;-76
2021/12/30 08:06:38;;;;;;;;;2.00;1.00;;;;;-144.69;100.00;61360.22;6243704;22;28260;-73
2021/12/30 08:09:03;;;;;;;;;5.00;3.67;;;;;-144.69;100.00;61360.22;6244599;22;28406;-73
2021/12/30 08:11:29;;;;;;;;;4.33;4.33;;;;;-144.69;100.00;61360.22;6212512;22;28321;-76
2021/12/30 08:13:54;;;;;;;;;5.00;3.00;;;;;-144.69;100.00;61360.22;6240960;22;28275;-74
2021/12/30 08:16:20;;;;;;;;;4.00;2.00;;;;;-144.69;100.00;61360.22;6241533;22;28438;-73
2021/12/30 08:18:45;;;;;;;;;5.33;3.33;;;;;-144.69;100.00;61360.22;6241919;22;28251;-73
2021/12/30 08:21:11;;;;;;;;;5.67;4.00;;;;;-144.69;100.00;61360.22;6238962;22;28432;-74
2021/12/30 08:23:37;;;;;;;;;2.33;1.33;;;;;-144.69;100.00;61360.22;6237776;22;28421;-74
2021/12/30 08:26:03;;;;;;;;;3.33;3.33;;;;;-144.69;100.00;61360.22;6237638;22;30812;-75
2021/12/30 08:28:29;;;;;;;;;4.00;3.00;;;;;-144.69;100.00;61360.22;6238455;22;28479;-73
2021/12/30 08:30:54;;;;;;;;;5.67;3.33;;;;;-144.69;100.00;61360.22;6212275;22;27868;-74
2021/12/30 08:33:20;;;;;;;;;4.67;3.33;;;;;-144.69;100.00;61360.22;6237282;22;28587;-74
2021/12/30 08:35:45;;;;;;;;;3.33;1.67;;;;;-144.69;100.00;61360.22;6237770;22;28417;-75
2021/12/30 08:38:12;;;;;;;;;2.67;1.00;;;;;-144.69;100.00;61360.22;6238465;22;28346;-74
2021/12/30 08:40:38;;;;;;;;;3.00;3.00;;;;;-144.69;100.00;61360.22;6239908;22;28484;-73
2021/12/30 08:43:06;;;;;;;;;5.00;4.00;;;;;-144.69;100.00;61360.22;6238264;22;28421;-74
2021/12/30 08:45:32;;;;;;;;;2.33;2.33;;;;;-144.69;100.00;61360.22;6239125;22;28408;-74
2021/12/30 08:47:57;;;;;;;;;1.00;1.00;;;;;-144.69;100.00;61360.22;6208612;22;28427;-73
2021/12/30 08:50:22;;;;;;;;;4.67;3.00;;;;;-144.69;100.00;61360.22;6237100;22;28340;-74
2021/12/30 08:52:48;;;;;;;;;2.33;2.00;;;;;-144.69;100.00;61360.22;6233884;22;28471;-74
2021/12/30 08:55:15;;;;;;;;;2.00;2.00;;;;;-144.69;100.00;61360.22;6236179;22;27769;-74
2021/12/30 08:57:42;;;;;;;;;6.33;2.33;;;;;-144.69;100.00;61360.22;6237664;22;28439;-76
2021/12/30 09:00:14;;;;;;;;;2.00;2.00;;;;;-144.69;100.00;61360.22;6234606;22;28402;-75
2021/12/30 09:02:40;;;;;;;;;2.00;2.00;;;;;-144.69;100.00;61360.22;6206057;22;28740;-74
2021/12/30 09:05:06;;;;;;;;;1.00;1.00;;;;;-144.69;100.00;61360.22;6233684;22;28499;-73
2021/12/30 09:07:31;;;;;;;;;2.00;2.00;;;;;-144.69;100.00;61360.22;6234651;22;28264;-73
2021/12/30 09:09:57;;;;;;;;;2.67;2.67;;;;;-144.69;100.00;61360.22;6237895;22;28422;-74
2021/12/30 09:12:24;;;;;;;;;3.00;3.00;;;;;-144.69;100.00;61360.22;6239793;22;28353;-77
2021/12/30 09:14:49;;;;;;;;;4.25;2.75;;;;;-144.69;100.00;61360.22;6241431;22;28268;-75
2021/12/30 09:17:15;;;;;;;;;0.00;0.00;;;;;-144.69;100.00;61360.22;6241477;22;28343;-74
2021/12/30 09:19:40;;;;;;;;;5.00;2.00;;;;;-144.69;100.00;61360.22;6242464;22;27646;-76
2021/12/30 09:22:06;;;;;;;;;3.00;1.33;;;;;-144.69;100.00;61360.22;6242532;22;28307;-77
2021/12/30 09:24:31;;;;;;;;;3.00;3.00;;;;;-144.69;100.00;61360.22;6244858;22;28375;-79
2021/12/30 09:26:57;;;;;;;;;1.67;1.67;;;;;-144.69;100.00;61360.22;6243921;22;28374;-74
2021/12/30 09:29:22;;;;;;;;;2.00;2.00;;;;;-144.69;100.00;61360.22;6245830;22;28267;-75
2021/12/30 09:31:49;;;;;;;;;3.67;2.67;;;;;-144.69;100.00;61360.22;6244658;22;28528;-78
2021/12/30 09:34:16;;;;;;;;;4.00;3.00;;;;;-144.69;100.00;61360.22;6247379;22;28348;-75
2021/12/30 09:36:42;;;;;;;;;2.00;2.00;;;;;-144.69;100.00;61360.22;6194394;22;27732;-75
2021/12/30 09:39:11;;;;;;;;;1.67;0.00;;;;;-144.69;100.00;61360.22;6248237;22;28442;-75
2021/12/30 09:41:39;;;;;;;;;1.00;1.00;;;;;-144.69;100.00;61360.22;6245411;22;28459;-75
2021/12/30 09:44:08;;;;;;;;;1.00;1.00;;;;;-144.69;100.00;61360.22;6244771;22;27868;-74
2021/12/30 09:46:35;;;;;;;;;2.50;2.50;;;;;-144.69;100.00;61360.22;6246340;22;28485;-75
2021/12/30 09:49:01;;;;;;;;;2.00;2.00;;;;;-144.69;100.00;61360.22;6243037;22;28523;-76
2021/12/30 09:51:26;;;;;;;;;2.33;1.33;;;;;-144.69;100.00;61360.22;6241636;22;28515;-76
2021/12/30 09:53:52;;;;;;;;;1.00;1.00;;;;;-144.69;100.00;61360.22;6244482;22;29414;-76
2021/12/30 09:56:21;;;;;;;;;3.00;1.33;;;;;-144.69;100.00;61360.22;6245044;22;28374;-75
2021/12/30 09:58:47;;;;;;;;;2.00;2.00;;;;;-144.69;100.00;61360.22;6243768;22;28166;-74
2021/12/30 10:01:13;;;;;;;;;2.33;2.33;;;;;-144.69;100.00;61360.22;6241856;22;28593;-74
2021/12/30 10:03:39;;;;;;;;;4.50;1.25;;;;;-144.69;100.00;61360.22;6242596;22;28621;-74
2021/12/30 10:06:07;;;;;;;;;3.33;1.00;;;;;-144.69;100.00;61360.22;6213374;22;29321;-76
2021/12/30 10:08:36;;;;;;;;;1.00;1.00;;;;;-144.69;100.00;61360.22;6241011;22;28682;-76
2021/12/30 10:11:05;;;;;;;;;3.75;1.00;;;;;-144.69;100.00;61360.22;6243567;22;27971;-75
2021/12/30 10:13:33;;;;;;;;;1.33;1.00;;;;;-144.69;100.00;61360.22;6241845;22;29687;-75
2021/12/30 10:16:10;;;;;;;;;2.67;2.00;;;;;-144.69;100.00;61360.22;6240509;22;28560;-78
2021/12/30 10:18:41;;;;;;;;;1.33;1.33;;;;;-144.69;100.00;61360.22;6244175;22;28544;-75
2021/12/30 10:21:31;;;;;;;;;3.00;3.00;;;;;-144.69;100.00;61360.22;6240045;22;28618;-77
2021/12/30 10:24:00;;;;;;;;;3.67;2.33;;;;;-144.69;100.00;61360.22;6146216;23;28619;-76
2021/12/30 10:26:25;;;;;;;;;4.00;2.25;;;;;-144.69;100.00;61360.22;6148771;23;28575;-75
2021/12/30 10:28:57;;;;;;;;;2.00;2.00;;;;;-144.69;100.00;61360.22;6150640;23;28608;-75
2021/12/30 10:31:25;;;;;;;;;2.67;2.00;;;;;-144.69;100.00;61360.22;6148466;23;27893;-76
2021/12/30 10:34:01;;;;;;;;;3.33;2.00;;;;;-144.69;100.00;61360.22;6148193;23;28523;-76
2021/12/30 10:36:38;;;;;;;;;1.33;1.33;;;;;-144.69;100.00;61360.22;6148183;23;28353;-76
2021/12/30 10:39:26;;;;;;;;;2.00;2.00;;;;;-144.69;100.00;61360.22;6146900;23;28426;-76
2021/12/30 10:42:20;;;;;;;;;3.00;3.00;;;;;-144.69;100.00;61360.22;6147269;23;28479;-75
2021/12/30 10:44:56;;;;;;;;;3.00;2.33;;;;;-144.69;100.00;61360.22;6148450;23;28298;-75
2021/12/30 10:47:28;;;;;;;;;4.67;2.00;;;;;-144.69;100.00;61360.22;6146452;23;28284;-75
2021/12/30 10:50:03;;;;;;;;;1.00;1.00;;;;;-144.69;100.00;61360.22;6146765;23;28372;-77
2021/12/30 10:52:29;;;;;;;;;4.67;3.00;;;;;-144.69;100.00;61360.22;6147083;23;28356;-76
2021/12/30 10:54:57;;;;;;;;;3.67;3.67;;;;;-144.69;100.00;61360.22;6146706;23;28190;-75
2021/12/30 10:57:28;;;;;;;;;6.00;2.00;;;;;-144.69;100.00;61360.22;6144918;23;28401;-77
2021/12/30 10:59:54;;;;;;;;;3.00;3.00;;;;;-144.69;100.00;61360.22;6152603;22;27825;-76
2021/12/30 11:02:22;;;;;;;;;3.67;3.00;;;;;-144.69;100.00;61360.22;6239626;22;28341;-76
2021/12/30 11:04:57;;;;;;;;;4.00;4.00;;;;;-144.69;100.00;61360.22;6238885;22;28227;-76
2021/12/30 11:07:27;;;;;;;;;6.33;3.33;;;;;-144.69;100.00;61360.22;6237555;22;27723;-76